sensor_id;sensor_type;location;lat;lon;timestamp;temperature;humidity
20057;DHT22;10189;49.546;7.906;2023-10-31T00:00:11;9.20;99.90
20057;DHT22;10189;49.546;7.906;2023-10-31T00:02:38;9.20;99.90
20057;DHT22;10189;49.546;7.906;2023-10-31T00:05:04;9.20;99.90
20057;DHT22;10189;49.546;7.906;2023-10-31T00:07:30;9.30;99.90
20057;DHT22;10189;49.546;7.906;2023-10-31T00:09:56;9.30;99.90
20057;DHT22;10189;49.546;7.906;2023-10-31T00:12:22;9.30;99.90
20057;DHT22;10189;49.546;7.906;2023-10-31T00:14:48;9.30;99.90
20057;DHT22;10189;49.546;7.906;2023-10-31T00:17:14;9.30;99.90
20057;DHT22;10189;49.546;7.906;2023-10-31T00:19:39;9.30;99.90
20057;DHT22;10189;49.546;7.906;2023-10-31T00:22:05;9.30;99.90
20057;DHT22;10189;49.546;7.906;2023-10-31T00:24:31;9.30;99.90
20057;DHT22;10189;49.546;7.906;2023-10-31T00:26:58;9.20;99.90
20057;DHT22;10189;49.546;7.906;2023-10-31T00:29:24;9.20;99.90
20057;DHT22;10189;49.546;7.906;2023-10-31T00:31:49;9.20;99.90
20057;DHT22;10189;49.546;7.906;2023-10-31T00:34:15;9.10;99.90
20057;DHT22;10189;49.546;7.906;2023-10-31T00:36:41;9.00;99.90
20057;DHT22;10189;49.546;7.906;2023-10-31T00:39:07;9.00;99.90
20057;DHT22;10189;49.546;7.906;2023-10-31T00:41:33;8.90;99.90
20057;DHT22;10189;49.546;7.906;2023-10-31T00:43:59;8.90;99.90
20057;DHT22;10189;49.546;7.906;2023-10-31T00:46:25;8.80;99.90
20057;DHT22;10189;49.546;7.906;2023-10-31T00:48:50;8.70;99.90
20057;DHT22;10189;49.546;7.906;2023-10-31T00:51:16;8.80;99.90
20057;DHT22;10189;49.546;7.906;2023-10-31T00:53:42;8.70;99.90
20057;DHT22;10189;49.546;7.906;2023-10-31T00:56:08;8.70;99.90
20057;DHT22;10189;49.546;7.906;2023-10-31T00:58:34;8.60;99.90
20057;DHT22;10189;49.546;7.906;2023-10-31T01:01:00;8.60;99.90
20057;DHT22;10189;49.546;7.906;2023-10-31T01:03:26;8.60;99.90
20057;DHT22;10189;49.546;7.906;2023-10-31T01:05:52;8.60;99.90
20057;DHT22;10189;49.546;7.906;2023-10-31T01:08:17;8.60;99.90
20057;DHT22;10189;49.546;7.906;2023-10-31T01:10:43;8.60;99.90
20057;DHT22;10189;49.546;7.906;2023-10-31T01:13:09;8.50;99.90
20057;DHT22;10189;49.546;7.906;2023-10-31T01:15:35;8.50;99.90
20057;DHT22;10189;49.546;7.906;2023-10-31T01:18:01;8.50;99.90
20057;DHT22;10189;49.546;7.906;2023-10-31T01:20:27;8.50;99.90
20057;DHT22;10189;49.546;7.906;2023-10-31T01:22:53;8.50;99.90
20057;DHT22;10189;49.546;7.906;2023-10-31T01:25:18;8.50;99.90
20057;DHT22;10189;49.546;7.906;2023-10-31T01:27:44;8.50;99.90
20057;DHT22;10189;49.546;7.906;2023-10-31T01:30:11;8.60;99.90
20057;DHT22;10189;49.546;7.906;2023-10-31T01:32:37;8.60;99.90
20057;DHT22;10189;49.546;7.906;2023-10-31T01:35:03;8.70;99.90
20057;DHT22;10189;49.546;7.906;2023-10-31T01:37:30;8.80;99.90
20057;DHT22;10189;49.546;7.906;2023-10-31T01:39:55;8.80;99.90
20057;DHT22;10189;49.546;7.906;2023-10-31T01:42:21;8.80;99.90
20057;DHT22;10189;49.546;7.906;2023-10-31T01:44:47;8.90;99.90
20057;DHT22;10189;49.546;7.906;2023-10-31T01:47:13;8.90;99.90
20057;DHT22;10189;49.546;7.906;2023-10-31T01:49:40;8.90;99.90
20057;DHT22;10189;49.546;7.906;2023-10-31T01:52:06;9.00;99.90
20057;DHT22;10189;49.546;7.906;2023-10-31T01:54:35;8.90;99.90
20057;DHT22;10189;49.546;7.906;2023-10-31T01:57:04;8.90;99.90
20057;DHT22;10189;49.546;7.906;2023-10-31T01:59:31;8.90;99.90
20057;DHT22;10189;49.546;7.906;2023-10-31T02:01:57;8.90;99.90
20057;DHT22;10189;49.546;7.906;2023-10-31T02:04:24;8.90;99.90
20057;DHT22;10189;49.546;7.906;2023-10-31T02:06:50;8.90;99.90
20057;DHT22;10189;49.546;7.906;2023-10-31T02:09:18;8.90;99.90
20057;DHT22;10189;49.546;7.906;2023-10-31T02:11:44;8.90;99.90
20057;DHT22;10189;49.546;7.906;2023-10-31T02:14:09;8.90;99.90
20057;DHT22;10189;49.546;7.906;2023-10-31T02:16:35;8.90;99.90
20057;DHT22;10189;49.546;7.906;2023-10-31T02:19:01;8.90;99.90
20057;DHT22;10189;49.546;7.906;2023-10-31T02:21:29;8.90;99.90
20057;DHT22;10189;49.546;7.906;2023-10-31T02:24:03;8.90;99.90
20057;DHT22;10189;49.546;7.906;2023-10-31T02:26:30;8.90;99.90
20057;DHT22;10189;49.546;7.906;2023-10-31T02:28:58;8.90;99.90
20057;DHT22;10189;49.546;7.906;2023-10-31T02:31:24;9.00;99.90
20057;DHT22;10189;49.546;7.906;2023-10-31T02:33:51;9.00;99.90
20057;DHT22;10189;49.546;7.906;2023-10-31T02:36:17;9.00;99.90
20057;DHT22;10189;49.546;7.906;2023-10-31T02:38:44;9.00;99.90
20057;DHT22;10189;49.546;7.906;2023-10-31T02:41:10;9.00;99.90
20057;DHT22;10189;49.546;7.906;2023-10-31T02:43:37;9.00;99.90
20057;DHT22;10189;49.546;7.906;2023-10-31T02:46:03;9.00;99.90
20057;DHT22;10189;49.546;7.906;2023-10-31T02:48:29;9.00;99.90
20057;DHT22;10189;49.546;7.906;2023-10-31T02:50:57;9.00;99.90
20057;DHT22;10189;49.546;7.906;2023-10-31T02:53:23;9.00;99.90
20057;DHT22;10189;49.546;7.906;2023-10-31T02:55:49;9.00;99.90
20057;DHT22;10189;49.546;7.906;2023-10-31T02:58:15;9.00;99.90
20057;DHT22;10189;49.546;7.906;2023-10-31T03:00:42;9.00;99.90
20057;DHT22;10189;49.546;7.906;2023-10-31T03:03:09;9.00;99.90
20057;DHT22;10189;49.546;7.906;2023-10-31T03:05:34;9.00;99.90
20057;DHT22;10189;49.546;7.906;2023-10-31T03:08:01;9.00;99.90
20057;DHT22;10189;49.546;7.906;2023-10-31T03:10:27;9.00;99.90
20057;DHT22;10189;49.546;7.906;2023-10-31T03:12:53;9.00;99.90
20057;DHT22;10189;49.546;7.906;2023-10-31T03:15:19;9.00;99.90
20057;DHT22;10189;49.546;7.906;2023-10-31T03:17:44;9.00;99.90
20057;DHT22;10189;49.546;7.906;2023-10-31T03:20:11;9.00;99.90
20057;DHT22;10189;49.546;7.906;2023-10-31T03:22:36;9.00;99.90
20057;DHT22;10189;49.546;7.906;2023-10-31T03:25:03;9.00;99.90
20057;DHT22;10189;49.546;7.906;2023-10-31T03:27:29;9.00;99.90
20057;DHT22;10189;49.546;7.906;2023-10-31T03:29:55;9.00;99.90
20057;DHT22;10189;49.546;7.906;2023-10-31T03:32:21;9.00;99.90
20057;DHT22;10189;49.546;7.906;2023-10-31T03:34:47;9.00;99.90
20057;DHT22;10189;49.546;7.906;2023-10-31T03:37:13;9.00;99.90
20057;DHT22;10189;49.546;7.906;2023-10-31T03:39:39;8.90;99.90
20057;DHT22;10189;49.546;7.906;2023-10-31T03:42:05;8.90;99.90
20057;DHT22;10189;49.546;7.906;2023-10-31T03:44:31;8.90;99.90
20057;DHT22;10189;49.546;7.906;2023-10-31T03:46:57;8.90;99.90
20057;DHT22;10189;49.546;7.906;2023-10-31T03:49:23;8.90;99.90
20057;DHT22;10189;49.546;7.906;2023-10-31T03:51:48;8.90;99.90
20057;DHT22;10189;49.546;7.906;2023-10-31T03:54:15;8.80;99.90
20057;DHT22;10189;49.546;7.906;2023-10-31T03:56:42;8.80;99.90
20057;DHT22;10189;49.546;7.906;2023-10-31T03:59:09;8.80;99.90
20057;DHT22;10189;49.546;7.906;2023-10-31T04:01:35;8.90;99.90
20057;DHT22;10189;49.546;7.906;2023-10-31T04:04:02;8.80;99.90
20057;DHT22;10189;49.546;7.906;2023-10-31T04:06:28;8.80;99.90
20057;DHT22;10189;49.546;7.906;2023-10-31T04:08:54;8.90;99.90
20057;DHT22;10189;49.546;7.906;2023-10-31T04:11:20;8.90;99.90
20057;DHT22;10189;49.546;7.906;2023-10-31T04:13:46;8.90;99.90
20057;DHT22;10189;49.546;7.906;2023-10-31T04:16:12;8.90;99.90
20057;DHT22;10189;49.546;7.906;2023-10-31T04:18:38;8.90;99.90
20057;DHT22;10189;49.546;7.906;2023-10-31T04:21:04;8.90;99.90
20057;DHT22;10189;49.546;7.906;2023-10-31T04:23:30;8.80;99.90
20057;DHT22;10189;49.546;7.906;2023-10-31T04:25:56;8.80;99.90
20057;DHT22;10189;49.546;7.906;2023-10-31T04:28:21;8.80;99.90
20057;DHT22;10189;49.546;7.906;2023-10-31T04:30:47;8.80;99.90
20057;DHT22;10189;49.546;7.906;2023-10-31T04:33:13;8.80;99.90
20057;DHT22;10189;49.546;7.906;2023-10-31T04:35:39;8.80;99.90
20057;DHT22;10189;49.546;7.906;2023-10-31T04:38:05;8.90;99.90
20057;DHT22;10189;49.546;7.906;2023-10-31T04:40:31;8.80;99.90
20057;DHT22;10189;49.546;7.906;2023-10-31T04:42:57;8.80;99.90
20057;DHT22;10189;49.546;7.906;2023-10-31T04:45:22;8.70;99.90
20057;DHT22;10189;49.546;7.906;2023-10-31T04:47:48;8.70;99.90
20057;DHT22;10189;49.546;7.906;2023-10-31T04:50:14;8.70;99.90
20057;DHT22;10189;49.546;7.906;2023-10-31T04:52:40;8.70;99.90
20057;DHT22;10189;49.546;7.906;2023-10-31T04:55:07;8.70;99.90
20057;DHT22;10189;49.546;7.906;2023-10-31T04:57:33;8.70;99.90
20057;DHT22;10189;49.546;7.906;2023-10-31T04:59:59;8.60;99.90
20057;DHT22;10189;49.546;7.906;2023-10-31T05:02:25;8.60;99.90
20057;DHT22;10189;49.546;7.906;2023-10-31T05:04:51;8.70;99.90
20057;DHT22;10189;49.546;7.906;2023-10-31T05:07:18;8.60;99.90
20057;DHT22;10189;49.546;7.906;2023-10-31T05:09:44;8.70;99.90
20057;DHT22;10189;49.546;7.906;2023-10-31T05:12:10;8.70;99.90
20057;DHT22;10189;49.546;7.906;2023-10-31T05:14:36;8.70;99.90
20057;DHT22;10189;49.546;7.906;2023-10-31T05:17:02;8.70;99.90
20057;DHT22;10189;49.546;7.906;2023-10-31T05:19:29;8.60;99.90
20057;DHT22;10189;49.546;7.906;2023-10-31T05:21:55;8.60;99.90
20057;DHT22;10189;49.546;7.906;2023-10-31T05:24:21;8.60;99.90
20057;DHT22;10189;49.546;7.906;2023-10-31T05:26:47;8.60;99.90
20057;DHT22;10189;49.546;7.906;2023-10-31T05:29:13;8.60;99.90
20057;DHT22;10189;49.546;7.906;2023-10-31T05:31:38;8.60;99.90
20057;DHT22;10189;49.546;7.906;2023-10-31T05:34:04;8.60;99.90
20057;DHT22;10189;49.546;7.906;2023-10-31T05:36:30;8.60;99.90
20057;DHT22;10189;49.546;7.906;2023-10-31T05:38:56;8.50;99.90
20057;DHT22;10189;49.546;7.906;2023-10-31T05:41:22;8.50;99.90
20057;DHT22;10189;49.546;7.906;2023-10-31T05:43:48;8.50;99.90
20057;DHT22;10189;49.546;7.906;2023-10-31T05:46:14;8.50;99.90
20057;DHT22;10189;49.546;7.906;2023-10-31T05:48:43;8.50;99.90
20057;DHT22;10189;49.546;7.906;2023-10-31T05:51:15;8.40;99.90
20057;DHT22;10189;49.546;7.906;2023-10-31T05:53:43;8.40;99.90
20057;DHT22;10189;49.546;7.906;2023-10-31T05:56:11;8.40;99.90
20057;DHT22;10189;49.546;7.906;2023-10-31T05:58:39;8.40;99.90
20057;DHT22;10189;49.546;7.906;2023-10-31T06:01:06;8.40;99.90
20057;DHT22;10189;49.546;7.906;2023-10-31T06:03:33;8.40;99.90
20057;DHT22;10189;49.546;7.906;2023-10-31T06:06:00;8.40;99.90
20057;DHT22;10189;49.546;7.906;2023-10-31T06:08:26;8.40;99.90
20057;DHT22;10189;49.546;7.906;2023-10-31T06:10:56;8.40;99.90
20057;DHT22;10189;49.546;7.906;2023-10-31T06:13:22;8.40;99.90
20057;DHT22;10189;49.546;7.906;2023-10-31T06:15:51;8.40;99.90
20057;DHT22;10189;49.546;7.906;2023-10-31T06:18:17;8.40;99.90
20057;DHT22;10189;49.546;7.906;2023-10-31T06:20:43;8.40;99.90
20057;DHT22;10189;49.546;7.906;2023-10-31T06:23:09;8.40;99.90
20057;DHT22;10189;49.546;7.906;2023-10-31T06:25:35;8.40;99.90
20057;DHT22;10189;49.546;7.906;2023-10-31T06:28:00;8.50;99.90
20057;DHT22;10189;49.546;7.906;2023-10-31T06:30:26;8.40;99.90
20057;DHT22;10189;49.546;7.906;2023-10-31T06:32:53;8.50;99.90
20057;DHT22;10189;49.546;7.906;2023-10-31T06:35:19;8.50;99.90
20057;DHT22;10189;49.546;7.906;2023-10-31T06:37:45;8.50;99.90
20057;DHT22;10189;49.546;7.906;2023-10-31T06:40:11;8.50;99.90
20057;DHT22;10189;49.546;7.906;2023-10-31T06:42:37;8.50;99.90
20057;DHT22;10189;49.546;7.906;2023-10-31T06:45:04;8.50;99.90
20057;DHT22;10189;49.546;7.906;2023-10-31T06:47:30;8.50;99.90
20057;DHT22;10189;49.546;7.906;2023-10-31T06:49:56;8.50;99.90
20057;DHT22;10189;49.546;7.906;2023-10-31T06:52:22;8.50;99.90
20057;DHT22;10189;49.546;7.906;2023-10-31T06:54:47;8.50;99.90
20057;DHT22;10189;49.546;7.906;2023-10-31T06:57:13;8.50;99.90
20057;DHT22;10189;49.546;7.906;2023-10-31T06:59:40;8.50;99.90
20057;DHT22;10189;49.546;7.906;2023-10-31T07:02:07;8.50;99.90
20057;DHT22;10189;49.546;7.906;2023-10-31T07:04:33;8.60;99.90
20057;DHT22;10189;49.546;7.906;2023-10-31T07:06:59;8.60;99.90
20057;DHT22;10189;49.546;7.906;2023-10-31T07:09:25;8.60;99.90
20057;DHT22;10189;49.546;7.906;2023-10-31T07:11:52;8.60;99.90
20057;DHT22;10189;49.546;7.906;2023-10-31T07:14:18;8.60;99.90
20057;DHT22;10189;49.546;7.906;2023-10-31T07:16:44;8.60;99.90
20057;DHT22;10189;49.546;7.906;2023-10-31T07:19:10;8.70;99.90
20057;DHT22;10189;49.546;7.906;2023-10-31T07:21:36;8.70;99.90
20057;DHT22;10189;49.546;7.906;2023-10-31T07:24:02;8.70;99.90
20057;DHT22;10189;49.546;7.906;2023-10-31T07:26:28;8.70;99.90
20057;DHT22;10189;49.546;7.906;2023-10-31T07:28:54;8.70;99.90
20057;DHT22;10189;49.546;7.906;2023-10-31T07:31:20;8.70;99.90
20057;DHT22;10189;49.546;7.906;2023-10-31T07:33:47;8.80;99.90
20057;DHT22;10189;49.546;7.906;2023-10-31T07:36:13;8.80;99.90
20057;DHT22;10189;49.546;7.906;2023-10-31T07:38:39;8.90;99.50
20057;DHT22;10189;49.546;7.906;2023-10-31T07:41:04;8.90;99.10
20057;DHT22;10189;49.546;7.906;2023-10-31T07:43:30;8.90;98.90
20057;DHT22;10189;49.546;7.906;2023-10-31T07:45:56;9.00;99.80
20057;DHT22;10189;49.546;7.906;2023-10-31T07:48:22;9.00;99.90
20057;DHT22;10189;49.546;7.906;2023-10-31T07:50:48;9.00;99.90
20057;DHT22;10189;49.546;7.906;2023-10-31T07:53:14;9.00;99.90
20057;DHT22;10189;49.546;7.906;2023-10-31T07:55:40;9.00;99.90
20057;DHT22;10189;49.546;7.906;2023-10-31T07:58:06;9.00;99.90
20057;DHT22;10189;49.546;7.906;2023-10-31T08:00:31;9.10;99.90
20057;DHT22;10189;49.546;7.906;2023-10-31T08:03:00;9.10;99.90
20057;DHT22;10189;49.546;7.906;2023-10-31T08:05:26;9.20;99.90
20057;DHT22;10189;49.546;7.906;2023-10-31T08:07:52;9.30;99.90
20057;DHT22;10189;49.546;7.906;2023-10-31T08:10:19;9.40;99.70
20057;DHT22;10189;49.546;7.906;2023-10-31T08:12:45;9.50;99.90
20057;DHT22;10189;49.546;7.906;2023-10-31T08:15:11;9.50;99.90
20057;DHT22;10189;49.546;7.906;2023-10-31T08:17:39;9.60;99.50
20057;DHT22;10189;49.546;7.906;2023-10-31T08:20:06;9.60;98.60
20057;DHT22;10189;49.546;7.906;2023-10-31T08:22:36;9.50;99.00
20057;DHT22;10189;49.546;7.906;2023-10-31T08:25:03;9.60;99.90
20057;DHT22;10189;49.546;7.906;2023-10-31T08:27:29;9.60;99.00
20057;DHT22;10189;49.546;7.906;2023-10-31T08:29:55;9.70;98.80
20057;DHT22;10189;49.546;7.906;2023-10-31T08:32:21;9.80;99.30
20057;DHT22;10189;49.546;7.906;2023-10-31T08:34:50;9.80;98.60
20057;DHT22;10189;49.546;7.906;2023-10-31T08:37:16;9.80;98.60
20057;DHT22;10189;49.546;7.906;2023-10-31T08:39:43;9.70;97.40
20057;DHT22;10189;49.546;7.906;2023-10-31T08:42:10;9.60;99.30
20057;DHT22;10189;49.546;7.906;2023-10-31T08:44:36;9.60;99.10
20057;DHT22;10189;49.546;7.906;2023-10-31T08:47:03;9.70;99.20
20057;DHT22;10189;49.546;7.906;2023-10-31T08:49:30;9.60;99.10
20057;DHT22;10189;49.546;7.906;2023-10-31T08:51:56;9.60;98.50
20057;DHT22;10189;49.546;7.906;2023-10-31T08:54:22;9.60;99.10
20057;DHT22;10189;49.546;7.906;2023-10-31T08:56:48;9.60;99.00
20057;DHT22;10189;49.546;7.906;2023-10-31T08:59:14;9.70;99.80
20057;DHT22;10189;49.546;7.906;2023-10-31T09:01:40;9.90;98.40
20057;DHT22;10189;49.546;7.906;2023-10-31T09:04:07;10.10;97.50
20057;DHT22;10189;49.546;7.906;2023-10-31T09:06:33;10.10;96.80
20057;DHT22;10189;49.546;7.906;2023-10-31T09:08:59;10.20;97.20
20057;DHT22;10189;49.546;7.906;2023-10-31T09:11:26;10.30;96.50
20057;DHT22;10189;49.546;7.906;2023-10-31T09:13:52;10.30;95.40
20057;DHT22;10189;49.546;7.906;2023-10-31T09:16:18;10.40;96.20
20057;DHT22;10189;49.546;7.906;2023-10-31T09:18:45;10.40;95.10
20057;DHT22;10189;49.546;7.906;2023-10-31T09:21:12;10.50;94.70
20057;DHT22;10189;49.546;7.906;2023-10-31T09:23:38;10.50;94.50
20057;DHT22;10189;49.546;7.906;2023-10-31T09:26:05;10.60;94.30
20057;DHT22;10189;49.546;7.906;2023-10-31T09:28:31;10.60;93.10
20057;DHT22;10189;49.546;7.906;2023-10-31T09:30:57;10.50;94.20
20057;DHT22;10189;49.546;7.906;2023-10-31T09:33:25;10.60;94.20
20057;DHT22;10189;49.546;7.906;2023-10-31T09:35:52;10.70;94.30
20057;DHT22;10189;49.546;7.906;2023-10-31T09:38:19;10.90;94.70
20057;DHT22;10189;49.546;7.906;2023-10-31T09:40:45;10.90;93.70
20057;DHT22;10189;49.546;7.906;2023-10-31T09:43:12;10.90;94.50
20057;DHT22;10189;49.546;7.906;2023-10-31T09:45:38;10.80;93.00
20057;DHT22;10189;49.546;7.906;2023-10-31T09:48:05;10.80;94.10
20057;DHT22;10189;49.546;7.906;2023-10-31T09:50:31;10.80;92.70
20057;DHT22;10189;49.546;7.906;2023-10-31T09:52:59;10.70;92.80
20057;DHT22;10189;49.546;7.906;2023-10-31T09:55:26;10.70;94.50
20057;DHT22;10189;49.546;7.906;2023-10-31T09:57:52;10.70;92.40
20057;DHT22;10189;49.546;7.906;2023-10-31T10:00:19;10.60;92.40
20057;DHT22;10189;49.546;7.906;2023-10-31T10:02:46;10.70;93.30
20057;DHT22;10189;49.546;7.906;2023-10-31T10:05:14;10.80;92.20
20057;DHT22;10189;49.546;7.906;2023-10-31T10:07:43;10.80;92.30
20057;DHT22;10189;49.546;7.906;2023-10-31T10:10:12;10.80;92.80
20057;DHT22;10189;49.546;7.906;2023-10-31T10:12:44;10.90;90.90
20057;DHT22;10189;49.546;7.906;2023-10-31T10:15:11;10.90;91.50
20057;DHT22;10189;49.546;7.906;2023-10-31T10:17:37;10.90;92.40
20057;DHT22;10189;49.546;7.906;2023-10-31T10:20:09;10.80;93.00
20057;DHT22;10189;49.546;7.906;2023-10-31T10:22:40;10.90;93.20
20057;DHT22;10189;49.546;7.906;2023-10-31T10:25:12;11.00;91.40
20057;DHT22;10189;49.546;7.906;2023-10-31T10:27:45;11.20;92.10
20057;DHT22;10189;49.546;7.906;2023-10-31T10:30:13;11.50;91.20
20057;DHT22;10189;49.546;7.906;2023-10-31T10:32:41;11.50;91.40
20057;DHT22;10189;49.546;7.906;2023-10-31T10:35:07;11.60;89.70
20057;DHT22;10189;49.546;7.906;2023-10-31T10:37:38;11.70;87.90
20057;DHT22;10189;49.546;7.906;2023-10-31T10:40:10;11.80;88.30
20057;DHT22;10189;49.546;7.906;2023-10-31T10:42:45;11.90;89.10
20057;DHT22;10189;49.546;7.906;2023-10-31T10:45:14;11.90;87.00
20057;DHT22;10189;49.546;7.906;2023-10-31T10:47:48;11.90;87.90
20057;DHT22;10189;49.546;7.906;2023-10-31T10:50:19;11.70;87.80
20057;DHT22;10189;49.546;7.906;2023-10-31T10:53:07;11.80;88.80
20057;DHT22;10189;49.546;7.906;2023-10-31T10:55:46;11.70;86.90
20057;DHT22;10189;49.546;7.906;2023-10-31T10:58:37;11.60;87.90
20057;DHT22;10189;49.546;7.906;2023-10-31T11:01:14;11.70;88.20
20057;DHT22;10189;49.546;7.906;2023-10-31T11:03:45;11.80;87.90
20057;DHT22;10189;49.546;7.906;2023-10-31T11:06:12;11.90;87.90
20057;DHT22;10189;49.546;7.906;2023-10-31T11:08:40;12.00;86.60
20057;DHT22;10189;49.546;7.906;2023-10-31T11:11:08;12.20;88.00
20057;DHT22;10189;49.546;7.906;2023-10-31T11:13:35;12.30;86.70
20057;DHT22;10189;49.546;7.906;2023-10-31T11:16:06;12.50;87.20
20057;DHT22;10189;49.546;7.906;2023-10-31T11:18:39;12.70;83.60
20057;DHT22;10189;49.546;7.906;2023-10-31T11:21:06;12.60;83.30
20057;DHT22;10189;49.546;7.906;2023-10-31T11:23:32;12.60;84.10
20057;DHT22;10189;49.546;7.906;2023-10-31T11:25:58;12.80;83.90
20057;DHT22;10189;49.546;7.906;2023-10-31T11:28:24;12.70;82.30
20057;DHT22;10189;49.546;7.906;2023-10-31T11:30:51;12.80;83.40
20057;DHT22;10189;49.546;7.906;2023-10-31T11:33:24;12.80;85.40
20057;DHT22;10189;49.546;7.906;2023-10-31T11:35:51;12.70;83.70
20057;DHT22;10189;49.546;7.906;2023-10-31T11:38:34;12.70;84.20
20057;DHT22;10189;49.546;7.906;2023-10-31T11:41:02;12.60;83.50
20057;DHT22;10189;49.546;7.906;2023-10-31T11:43:55;12.60;83.30
20057;DHT22;10189;49.546;7.906;2023-10-31T11:46:25;12.40;84.50
20057;DHT22;10189;49.546;7.906;2023-10-31T11:48:52;12.30;85.50
20057;DHT22;10189;49.546;7.906;2023-10-31T11:51:19;12.30;85.10
20057;DHT22;10189;49.546;7.906;2023-10-31T11:53:45;12.30;85.40
20057;DHT22;10189;49.546;7.906;2023-10-31T11:56:19;12.20;85.80
20057;DHT22;10189;49.546;7.906;2023-10-31T11:58:58;12.30;84.70
20057;DHT22;10189;49.546;7.906;2023-10-31T12:01:26;12.50;83.50
20057;DHT22;10189;49.546;7.906;2023-10-31T12:03:52;12.50;83.50
20057;DHT22;10189;49.546;7.906;2023-10-31T12:06:18;12.60;83.90
20057;DHT22;10189;49.546;7.906;2023-10-31T12:08:46;12.50;83.40
20057;DHT22;10189;49.546;7.906;2023-10-31T12:11:14;12.50;83.40
20057;DHT22;10189;49.546;7.906;2023-10-31T12:16:34;12.50;85.40
20057;DHT22;10189;49.546;7.906;2023-10-31T12:19:12;12.50;85.00
20057;DHT22;10189;49.546;7.906;2023-10-31T12:21:42;12.60;84.30
20057;DHT22;10189;49.546;7.906;2023-10-31T12:24:14;12.60;84.50
20057;DHT22;10189;49.546;7.906;2023-10-31T12:26:41;12.60;83.40
20057;DHT22;10189;49.546;7.906;2023-10-31T12:29:12;12.40;84.20
20057;DHT22;10189;49.546;7.906;2023-10-31T12:31:43;12.20;84.80
20057;DHT22;10189;49.546;7.906;2023-10-31T12:34:18;12.20;86.70
20057;DHT22;10189;49.546;7.906;2023-10-31T12:36:49;12.20;85.40
20057;DHT22;10189;49.546;7.906;2023-10-31T12:39:22;12.10;86.70
20057;DHT22;10189;49.546;7.906;2023-10-31T12:41:51;12.00;87.00
20057;DHT22;10189;49.546;7.906;2023-10-31T12:44:24;11.90;86.90
20057;DHT22;10189;49.546;7.906;2023-10-31T12:46:52;11.80;86.90
20057;DHT22;10189;49.546;7.906;2023-10-31T12:49:19;11.70;88.10
20057;DHT22;10189;49.546;7.906;2023-10-31T12:51:59;11.60;89.00
20057;DHT22;10189;49.546;7.906;2023-10-31T12:57:06;11.70;89.10
20057;DHT22;10189;49.546;7.906;2023-10-31T12:59:34;11.90;88.10
20057;DHT22;10189;49.546;7.906;2023-10-31T13:02:02;12.30;87.90
20057;DHT22;10189;49.546;7.906;2023-10-31T13:04:30;12.60;83.80
20057;DHT22;10189;49.546;7.906;2023-10-31T13:07:02;12.70;84.50
20057;DHT22;10189;49.546;7.906;2023-10-31T13:09:34;12.80;83.20
20057;DHT22;10189;49.546;7.906;2023-10-31T13:12:02;12.90;84.20
20057;DHT22;10189;49.546;7.906;2023-10-31T13:14:30;12.90;81.70
20057;DHT22;10189;49.546;7.906;2023-10-31T13:16:56;12.90;82.10
20057;DHT22;10189;49.546;7.906;2023-10-31T13:19:22;12.80;82.60
20057;DHT22;10189;49.546;7.906;2023-10-31T13:21:48;12.70;82.90
20057;DHT22;10189;49.546;7.906;2023-10-31T13:24:14;12.60;82.20
20057;DHT22;10189;49.546;7.906;2023-10-31T13:26:41;12.50;83.30
20057;DHT22;10189;49.546;7.906;2023-10-31T13:29:07;12.40;84.20
20057;DHT22;10189;49.546;7.906;2023-10-31T13:31:33;12.30;84.50
20057;DHT22;10189;49.546;7.906;2023-10-31T13:33:58;12.20;86.00
20057;DHT22;10189;49.546;7.906;2023-10-31T13:36:25;12.30;85.70
20057;DHT22;10189;49.546;7.906;2023-10-31T13:38:51;12.30;85.40
20057;DHT22;10189;49.546;7.906;2023-10-31T13:41:17;12.40;85.90
20057;DHT22;10189;49.546;7.906;2023-10-31T13:43:43;12.50;84.70
20057;DHT22;10189;49.546;7.906;2023-10-31T13:46:09;12.50;84.50
20057;DHT22;10189;49.546;7.906;2023-10-31T13:48:36;12.50;83.80
20057;DHT22;10189;49.546;7.906;2023-10-31T13:51:01;12.40;84.30
20057;DHT22;10189;49.546;7.906;2023-10-31T13:53:28;12.30;84.60
20057;DHT22;10189;49.546;7.906;2023-10-31T13:55:53;12.30;85.30
20057;DHT22;10189;49.546;7.906;2023-10-31T13:58:19;12.20;84.00
20057;DHT22;10189;49.546;7.906;2023-10-31T14:00:46;12.10;84.40
20057;DHT22;10189;49.546;7.906;2023-10-31T14:03:12;12.10;84.40
20057;DHT22;10189;49.546;7.906;2023-10-31T14:05:37;12.10;84.50
20057;DHT22;10189;49.546;7.906;2023-10-31T14:08:04;12.10;84.10
20057;DHT22;10189;49.546;7.906;2023-10-31T14:10:31;12.10;85.20
20057;DHT22;10189;49.546;7.906;2023-10-31T14:12:57;12.10;85.20
20057;DHT22;10189;49.546;7.906;2023-10-31T14:15:23;12.00;85.50
20057;DHT22;10189;49.546;7.906;2023-10-31T14:17:50;11.90;86.60
20057;DHT22;10189;49.546;7.906;2023-10-31T14:20:17;11.70;87.50
20057;DHT22;10189;49.546;7.906;2023-10-31T14:22:49;11.70;86.70
20057;DHT22;10189;49.546;7.906;2023-10-31T14:25:16;11.60;87.20
20057;DHT22;10189;49.546;7.906;2023-10-31T14:27:42;11.50;88.00
20057;DHT22;10189;49.546;7.906;2023-10-31T14:30:10;11.50;87.40
20057;DHT22;10189;49.546;7.906;2023-10-31T14:32:37;11.40;88.40
20057;DHT22;10189;49.546;7.906;2023-10-31T14:35:03;11.40;87.70
20057;DHT22;10189;49.546;7.906;2023-10-31T14:37:29;11.40;88.30
20057;DHT22;10189;49.546;7.906;2023-10-31T14:39:56;11.40;89.10
20057;DHT22;10189;49.546;7.906;2023-10-31T14:42:21;11.40;89.10
20057;DHT22;10189;49.546;7.906;2023-10-31T14:44:47;11.40;89.20
20057;DHT22;10189;49.546;7.906;2023-10-31T14:47:13;11.50;87.50
20057;DHT22;10189;49.546;7.906;2023-10-31T14:49:39;11.60;88.10
20057;DHT22;10189;49.546;7.906;2023-10-31T14:52:05;11.60;87.90
20057;DHT22;10189;49.546;7.906;2023-10-31T14:54:33;11.60;88.20
20057;DHT22;10189;49.546;7.906;2023-10-31T14:57:01;11.70;87.30
20057;DHT22;10189;49.546;7.906;2023-10-31T14:59:28;11.70;88.60
20057;DHT22;10189;49.546;7.906;2023-10-31T15:01:54;11.80;88.80
20057;DHT22;10189;49.546;7.906;2023-10-31T15:04:20;11.80;87.30
20057;DHT22;10189;49.546;7.906;2023-10-31T15:06:46;11.90;86.20
20057;DHT22;10189;49.546;7.906;2023-10-31T15:09:12;11.90;87.10
20057;DHT22;10189;49.546;7.906;2023-10-31T15:11:38;11.90;87.70
20057;DHT22;10189;49.546;7.906;2023-10-31T15:14:04;12.00;89.00
20057;DHT22;10189;49.546;7.906;2023-10-31T15:16:30;12.10;88.30
20057;DHT22;10189;49.546;7.906;2023-10-31T15:18:57;12.10;88.20
20057;DHT22;10189;49.546;7.906;2023-10-31T15:21:24;12.10;88.90
20057;DHT22;10189;49.546;7.906;2023-10-31T15:23:51;12.00;89.00
20057;DHT22;10189;49.546;7.906;2023-10-31T15:26:18;11.90;91.10
20057;DHT22;10189;49.546;7.906;2023-10-31T15:28:44;11.90;92.60
20057;DHT22;10189;49.546;7.906;2023-10-31T15:31:11;11.80;94.00
20057;DHT22;10189;49.546;7.906;2023-10-31T15:33:44;11.70;94.00
20057;DHT22;10189;49.546;7.906;2023-10-31T15:36:11;11.60;94.20
20057;DHT22;10189;49.546;7.906;2023-10-31T15:38:41;11.60;94.50
20057;DHT22;10189;49.546;7.906;2023-10-31T15:41:07;11.50;94.60
20057;DHT22;10189;49.546;7.906;2023-10-31T15:43:34;11.40;95.40